Time;durP1;ratioP1;P1;durP2;ratioP2;P2;SDS_P1;SDS_P2;PMS_P1;PMS_P2;Temp;Humidity;BMP_temperature;BMP_pressure;BME280_temperature;BME280_humidity;BME280_pressure;Samples;Min_cycle;Max_cycle;Signal;HPM_P1;HPM_P2
2023/03/21 00:00:40;;;;;;;5.70;2.80;;;7.00;99.90;;;;;;5053796;28;20037;-58
2023/03/21 00:03:07;;;;;;;3.85;2.47;;;6.90;99.90;;;;;;5049929;28;20102;-57
2023/03/21 00:05:38;;;;;;;;;;;6.90;99.90;;;;;;5069213;28;20435;-58
2023/03/21 00:08:05;;;;;;;5.18;2.80;;;6.90;99.90;;;;;;5066351;28;19921;-59
2023/03/21 00:10:32;;;;;;;5.18;3.13;;;6.90;99.90;;;;;;5065654;28;20070;-59
2023/03/21 00:13:18;;;;;;;6.75;2.83;;;6.90;99.90;;;;;;5061581;28;20120;-59
2023/03/21 00:15:53;;;;;;;6.05;3.60;;;6.90;99.90;;;;;;5065733;28;20798;-58
2023/03/21 00:18:40;;;;;;;9.70;3.47;;;6.90;99.90;;;;;;5052512;28;20045;-59
2023/03/21 00:21:10;;;;;;;6.22;3.80;;;6.80;99.90;;;;;;5063716;28;20645;-58
2023/03/21 00:23:59;;;;;;;6.97;4.32;;;6.80;99.90;;;;;;5051841;28;20060;-59
2023/03/21 00:26:26;;;;;;;7.35;4.32;;;6.80;99.90;;;;;;5072879;28;20041;-59
2023/03/21 00:28:52;;;;;;;14.52;4.57;;;6.80;99.90;;;;;;5073810;28;20052;-59
2023/03/21 00:31:19;;;;;;;6.95;3.50;;;6.70;99.90;;;;;;5064518;28;20044;-59
2023/03/21 00:33:48;;;;;;;6.13;3.85;;;6.70;99.90;;;;;;5052057;28;20131;-59
2023/03/21 00:36:15;;;;;;;9.80;4.55;;;6.60;99.90;;;;;;5066151;28;20134;-59
2023/03/21 00:38:42;;;;;;;6.43;3.92;;;6.70;99.90;;;;;;5053748;28;20041;-59
2023/03/21 00:41:11;;;;;;;9.40;4.60;;;6.60;99.90;;;;;;5037379;28;20099;-59
2023/03/21 00:43:54;;;;;;;7.93;4.13;;;6.60;99.90;;;;;;5073505;28;20032;-59
2023/03/21 00:46:21;;;;;;;6.82;4.53;;;6.60;99.90;;;;;;5062332;28;20111;-58
2023/03/21 00:48:51;;;;;;;6.72;3.90;;;6.60;99.90;;;;;;5056895;28;20033;-58
2023/03/21 00:51:25;;;;;;;11.52;4.45;;;6.60;99.90;;;;;;5046597;28;20057;-58
2023/03/21 00:53:56;;;;;;;9.27;3.90;;;6.50;99.90;;;;;;5073545;28;20075;-59
2023/03/21 00:56:26;;;;;;;8.13;3.97;;;6.50;99.90;;;;;;5048171;28;20055;-59
2023/03/21 00:58:53;;;;;;;7.80;3.88;;;6.40;99.90;;;;;;5050971;28;20033;-59
2023/03/21 01:01:20;;;;;;;10.73;3.30;;;6.40;99.90;;;;;;5052755;28;20041;-59
2023/03/21 01:03:49;;;;;;;5.40;3.88;;;6.40;99.90;;;;;;5049534;28;20037;-59
2023/03/21 01:06:19;;;;;;;5.90;3.90;;;6.40;99.90;;;;;;5056433;28;20056;-59
2023/03/21 01:08:47;;;;;;;6.03;3.78;;;6.40;99.90;;;;;;5064892;22;20040;-50
2023/03/21 01:11:21;;;;;;;11.77;4.05;;;6.50;99.90;;;;;;5074007;28;20508;-50
2023/03/21 01:13:48;;;;;;;5.70;3.63;;;6.50;99.90;;;;;;5075141;28;20051;-50
2023/03/21 01:16:36;;;;;;;11.13;4.03;;;6.40;99.90;;;;;;5079520;28;20063;-53
2023/03/21 01:19:04;;;;;;;6.07;4.00;;;6.40;99.90;;;;;;5065442;28;20052;-50
2023/03/21 01:21:40;;;;;;;5.80;3.45;;;6.50;99.90;;;;;;5055801;28;20080;-50
2023/03/21 01:24:07;;;;;;;5.82;3.83;;;6.50;99.90;;;;;;5077418;28;20048;-51
2023/03/21 01:26:36;;;;;;;5.90;4.05;;;6.50;99.90;;;;;;5071094;28;20075;-51
2023/03/21 01:29:04;;;;;;;3.80;3.40;;;6.60;99.90;;;;;;5068204;28;20481;-50
2023/03/21 01:31:31;;;;;;;7.57;4.18;;;6.50;99.90;;;;;;5054952;28;20037;-49
2023/03/21 01:33:58;;;;;;;7.50;4.00;;;6.60;99.90;;;;;;5071868;28;20120;-51
2023/03/21 01:36:25;;;;;;;7.85;4.40;;;6.60;99.90;;;;;;5055393;28;20110;-52
2023/03/21 01:38:58;;;;;;;10.10;3.83;;;6.60;99.90;;;;;;5052278;28;20044;-50
2023/03/21 01:41:54;;;;;;;8.77;4.43;;;6.60;99.90;;;;;;5055426;28;20056;-52
2023/03/21 01:44:25;;;;;;;6.70;4.20;;;6.70;99.90;;;;;;5049938;28;20051;-51
2023/03/21 01:46:52;;;;;;;5.18;3.70;;;6.70;99.90;;;;;;5054752;28;20052;-50
2023/03/21 01:49:40;;;;;;;5.72;3.47;;;6.70;99.90;;;;;;5066106;28;20094;-50
2023/03/21 01:52:18;;;;;;;5.25;3.60;;;6.70;99.90;;;;;;5053949;28;20501;-50
2023/03/21 01:55:10;;;;;;;6.43;3.63;;;6.80;99.90;;;;;;5035030;28;20049;-51
2023/03/21 01:57:51;;;;;;;5.60;3.75;;;6.80;99.90;;;;;;5048615;28;20522;-50
2023/03/21 02:00:37;;;;;;;6.13;3.17;;;6.80;99.90;;;;;;5054944;28;20044;-50
2023/03/21 02:03:19;;;;;;;7.75;3.35;;;6.90;99.90;;;;;;5057239;28;20052;-51
2023/03/21 02:06:20;;;;;;;4.75;3.35;;;6.90;99.90;;;;;;5087380;28;20149;-51
2023/03/21 02:08:53;;;;;;;10.07;3.17;;;6.90;99.90;;;;;;5069286;28;20049;-50
2023/03/21 02:11:21;;;;;;;7.70;3.95;;;6.90;99.90;;;;;;5071175;28;20056;-50
2023/03/21 02:13:47;;;;;;;7.30;3.65;;;6.90;99.90;;;;;;5069809;28;20040;-52
2023/03/21 02:16:54;;;;;;;6.03;3.40;;;6.80;99.90;;;;;;5081425;28;20048;-52
2023/03/21 02:19:28;;;;;;;8.70;3.55;;;6.90;99.90;;;;;;5055862;28;20048;-50
2023/03/21 02:22:13;;;;;;;5.10;3.20;;;6.80;99.90;;;;;;5066234;28;20051;-51
2023/03/21 02:24:56;;;;;;;7.68;3.13;;;6.80;99.90;;;;;;5049019;28;20045;-51
2023/03/21 02:27:46;;;;;;;7.38;3.55;;;6.80;99.90;;;;;;5052943;28;20116;-50
2023/03/21 02:30:37;;;;;;;5.30;3.17;;;6.80;99.90;;;;;;5053259;28;20227;-51
2023/03/21 02:33:50;;;;;;;4.28;3.20;;;6.70;99.90;;;;;;5052037;28;20075;-51
2023/03/21 02:36:26;;;;;;;5.43;3.05;;;6.80;99.90;;;;;;5053311;28;20462;-51
2023/03/21 02:39:14;;;;;;;4.35;3.08;;;6.70;99.90;;;;;;5049201;28;20037;-50
2023/03/21 02:41:49;;;;;;;6.45;3.05;;;6.80;99.90;;;;;;5053039;28;20083;-51
2023/03/21 02:44:42;;;;;;;5.55;3.42;;;6.80;99.90;;;;;;5053759;28;20584;-51
2023/03/21 02:47:15;;;;;;;5.05;3.35;;;6.80;99.90;;;;;;5050304;28;20053;-50
2023/03/21 02:50:06;;;;;;;5.53;2.70;;;6.80;99.90;;;;;;5060201;28;20139;-50
2023/03/21 02:52:36;;;;;;;3.20;2.35;;;6.80;99.90;;;;;;4997756;28;20099;-50
2023/03/21 02:55:14;;;;;;;4.55;2.00;;;6.80;99.90;;;;;;5035114;28;20140;-50
2023/03/21 02:57:54;;;;;;;5.70;2.67;;;6.70;99.90;;;;;;5049024;28;20052;-50
2023/03/21 03:00:26;;;;;;;8.32;2.47;;;6.70;99.90;;;;;;5052092;28;20412;-51
2023/03/21 03:02:54;;;;;;;4.28;2.10;;;6.80;99.90;;;;;;5044193;28;20037;-51
2023/03/21 03:05:40;;;;;;;6.63;2.47;;;6.70;99.90;;;;;;5052064;28;20051;-50
2023/03/21 03:08:29;;;;;;;3.75;2.17;;;6.60;99.90;;;;;;5054206;28;20136;-53
2023/03/21 03:11:34;;;;;;;6.53;2.28;;;6.60;99.90;;;;;;5052720;28;20135;-50
2023/03/21 03:14:22;;;;;;;2.83;1.80;;;6.50;99.90;;;;;;5081455;28;20048;-52
2023/03/21 03:17:25;;;;;;;2.75;1.85;;;6.50;99.90;;;;;;5053466;28;20501;-51
2023/03/21 03:20:00;;;;;;;7.97;2.92;;;6.50;99.90;;;;;;5047496;28;20444;-50
2023/03/21 03:23:11;;;;;;;5.82;2.60;;;6.50;99.90;;;;;;5053339;28;20082;-50
2023/03/21 03:26:01;;;;;;;3.90;2.92;;;6.50;99.90;;;;;;5052422;28;20135;-51
2023/03/21 03:28:35;;;;;;;7.60;2.70;;;6.50;99.90;;;;;;5045850;28;20044;-52
2023/03/21 03:31:11;;;;;;;5.07;3.30;;;6.50;99.90;;;;;;5051081;28;20041;-52
2023/03/21 03:33:51;;;;;;;7.45;2.97;;;6.50;99.90;;;;;;5051540;28;20155;-51
2023/03/21 03:36:20;;;;;;;6.15;2.72;;;6.40;99.90;;;;;;5051979;28;20040;-52
2023/03/21 03:39:05;;;;;;;4.47;3.30;;;6.40;99.90;;;;;;5051439;28;20131;-50
2023/03/21 03:41:44;;;;;;;4.57;2.83;;;6.50;99.90;;;;;;5053026;28;20047;-50
2023/03/21 03:44:35;;;;;;;8.25;3.10;;;6.50;99.90;;;;;;5049257;28;20413;-51
2023/03/21 03:47:11;;;;;;;4.78;3.38;;;6.50;99.90;;;;;;5070895;28;20044;-50
2023/03/21 03:50:08;;;;;;;9.73;3.40;;;6.50;99.90;;;;;;5051713;28;20063;-50
2023/03/21 03:53:04;;;;;;;3.97;2.67;;;6.50;99.90;;;;;;5070145;28;20416;-51
2023/03/21 03:55:44;;;;;;;3.58;2.95;;;6.50;99.90;;;;;;5052518;28;20058;-49
2023/03/21 03:58:18;;;;;;;4.85;2.70;;;6.50;99.90;;;;;;5051740;28;20079;-50
2023/03/21 04:00:53;;;;;;;5.47;2.70;;;6.60;99.90;;;;;;5051375;28;20046;-50
2023/03/21 04:03:20;;;;;;;3.88;2.70;;;6.50;99.90;;;;;;5051883;28;20048;-50
2023/03/21 04:05:49;;;;;;;4.35;2.70;;;6.50;99.90;;;;;;5046962;28;20489;-51
2023/03/21 04:08:16;;;;;;;5.57;3.03;;;6.60;99.90;;;;;;5051025;28;20040;-53
2023/03/21 04:10:48;;;;;;;4.85;2.83;;;6.10;99.90;;;;;;5051977;28;20103;-51
2023/03/21 04:13:15;;;;;;;5.65;3.10;;;6.50;99.90;;;;;;5051244;28;20066;-50
2023/03/21 04:16:01;;;;;;;5.05;3.00;;;6.50;99.90;;;;;;5068416;28;20098;-50
2023/03/21 04:18:29;;;;;;;5.80;3.40;;;6.50;99.90;;;;;;5050936;28;20045;-50
2023/03/21 04:20:56;;;;;;;5.03;3.42;;;6.50;99.90;;;;;;5050298;28;20544;-51
2023/03/21 04:23:28;;;;;;;4.82;3.55;;;6.50;99.90;;;;;;5051641;28;20043;-51
2023/03/21 04:25:54;;;;;;;4.82;3.17;;;6.50;99.90;;;;;;5051593;28;20493;-53
2023/03/21 04:28:35;;;;;;;3.78;2.70;;;6.50;99.90;;;;;;5047854;28;20219;-50
2023/03/21 04:31:35;;;;;;;8.23;2.80;;;6.50;99.90;;;;;;5027961;28;20111;-50
2023/03/21 04:34:11;;;;;;;4.55;2.50;;;6.50;99.90;;;;;;5047846;28;20044;-50
2023/03/21 04:36:45;;;;;;;7.22;3.20;;;6.50;99.90;;;;;;5054707;28;20110;-50
2023/03/21 04:39:13;;;;;;;3.45;2.38;;;6.50;99.90;;;;;;5050797;28;20128;-51
2023/03/21 04:41:49;;;;;;;8.65;2.60;;;6.50;99.90;;;;;;5051393;28;20043;-49
2023/03/21 04:44:16;;;;;;;3.17;2.40;;;6.50;99.90;;;;;;5058074;28;20067;-50
2023/03/21 04:46:44;;;;;;;7.65;4.30;;;6.50;99.90;;;;;;5057510;28;20127;-51
2023/03/21 04:49:12;;;;;;;5.55;3.35;;;6.50;99.90;;;;;;5054718;28;20136;-51
2023/03/21 04:51:42;;;;;;;7.72;3.60;;;6.40;99.90;;;;;;5054644;28;20041;-51
2023/03/21 04:54:12;;;;;;;9.90;3.53;;;6.50;99.90;;;;;;5046827;28;20405;-52
2023/03/21 04:56:41;;;;;;;5.93;3.30;;;6.50;99.90;;;;;;5054610;28;20470;-50
2023/03/21 04:59:13;;;;;;;8.38;4.50;;;6.50;99.90;;;;;;5059548;28;20062;-50
2023/03/21 05:01:42;;;;;;;6.78;3.90;;;6.50;99.90;;;;;;5059218;28;20393;-51
2023/03/21 05:04:10;;;;;;;7.28;3.45;;;6.50;99.90;;;;;;5054103;28;20044;-50
2023/03/21 05:06:38;;;;;;;6.85;3.47;;;6.50;99.90;;;;;;5060654;28;20044;-50
2023/03/21 05:09:05;;;;;;;4.95;3.08;;;6.50;99.90;;;;;;5060720;28;20091;-51
2023/03/21 05:11:36;;;;;;;3.78;2.83;;;6.50;99.90;;;;;;5050611;28;20044;-52
2023/03/21 05:14:05;;;;;;;3.85;2.60;;;6.50;99.90;;;;;;5057233;28;20047;-53
2023/03/21 05:16:33;;;;;;;4.50;2.83;;;6.50;99.90;;;;;;5077324;28;20039;-52
2023/03/21 05:19:04;;;;;;;5.85;3.20;;;6.50;99.90;;;;;;5052247;28;20043;-50
2023/03/21 05:21:40;;;;;;;6.63;3.00;;;6.50;99.90;;;;;;5047006;28;20524;-51
2023/03/21 05:24:14;;;;;;;6.72;3.28;;;6.50;99.90;;;;;;5051304;28;20059;-50
2023/03/21 05:26:42;;;;;;;5.43;3.58;;;6.50;99.90;;;;;;5072993;28;20120;-52
2023/03/21 05:29:17;;;;;;;6.60;3.30;;;6.60;99.90;;;;;;5061822;28;20048;-50
2023/03/21 05:31:50;;;;;;;6.10;3.25;;;6.60;99.90;;;;;;5063504;28;20567;-50
2023/03/21 05:34:18;;;;;;;4.95;3.55;;;6.60;99.90;;;;;;5052798;28;20139;-52
2023/03/21 05:36:45;;;;;;;6.18;3.88;;;6.60;99.90;;;;;;5053675;28;20496;-51
2023/03/21 05:39:12;;;;;;;9.05;3.63;;;6.70;99.90;;;;;;5053357;28;20437;-51
2023/03/21 05:41:45;;;;;;;7.45;3.65;;;6.70;99.90;;;;;;5049807;28;20463;-49
2023/03/21 05:44:12;;;;;;;5.78;3.15;;;6.80;99.90;;;;;;5053784;28;20045;-50
2023/03/21 05:46:39;;;;;;;5.47;3.60;;;6.80;99.90;;;;;;5048503;28;20166;-50
2023/03/21 05:49:06;;;;;;;4.35;3.17;;;6.80;99.90;;;;;;5059760;28;20044;-51
2023/03/21 05:51:34;;;;;;;5.72;3.35;;;6.80;99.90;;;;;;5053649;28;20048;-49
2023/03/21 05:54:00;;;;;;;4.95;3.00;;;6.80;99.90;;;;;;5052821;28;20041;-50
2023/03/21 05:56:28;;;;;;;4.13;2.88;;;6.90;99.90;;;;;;5050272;28;20484;-50
2023/03/21 05:59:00;;;;;;;4.70;3.13;;;6.90;99.90;;;;;;5053240;28;20143;-49
2023/03/21 06:01:29;;;;;;;4.30;3.10;;;6.90;99.90;;;;;;5049470;28;20091;-52
2023/03/21 06:04:07;;;;;;;6.53;3.40;;;6.90;99.90;;;;;;5053316;28;20063;-53
2023/03/21 06:06:35;;;;;;;6.20;3.35;;;6.90;99.90;;;;;;5052310;28;20636;-51
2023/03/21 06:09:03;;;;;;;5.97;3.20;;;7.00;99.90;;;;;;5053181;28;20566;-49
2023/03/21 06:11:33;;;;;;;13.60;3.65;;;7.00;99.90;;;;;;5071238;28;20079;-50
2023/03/21 06:14:19;;;;;;;5.80;3.25;;;7.00;99.90;;;;;;5070938;28;20070;-51
2023/03/21 06:17:03;;;;;;;4.72;3.03;;;7.00;99.90;;;;;;5051421;28;20199;-53
2023/03/21 06:19:30;;;;;;;6.00;3.30;;;7.00;99.90;;;;;;5070752;28;20421;-50
2023/03/21 06:22:03;;;;;;;8.48;3.47;;;7.00;99.90;;;;;;5043159;28;20049;-50
2023/03/21 06:24:32;;;;;;;11.20;3.63;;;7.10;99.90;;;;;;5053615;28;20505;-50
2023/03/21 06:26:59;;;;;;;7.35;3.63;;;7.20;99.90;;;;;;5058014;28;20051;-50
2023/03/21 06:29:37;;;;;;;8.20;3.92;;;7.20;99.90;;;;;;5063238;28;20510;-50
2023/03/21 06:32:06;;;;;;;9.45;3.30;;;7.30;99.90;;;;;;5054588;28;20052;-50
2023/03/21 06:34:33;;;;;;;6.00;3.85;;;7.30;99.90;;;;;;5073875;28;20048;-52
2023/03/21 06:36:59;;;;;;;7.82;4.35;;;7.30;99.90;;;;;;5067444;28;20044;-53
2023/03/21 06:39:31;;;;;;;6.55;4.10;;;7.40;99.90;;;;;;5059318;28;20055;-52
2023/03/21 06:41:59;;;;;;;8.02;3.97;;;7.40;99.90;;;;;;5071098;28;20037;-53
2023/03/21 06:44:26;;;;;;;;;;;7.50;99.90;;;;;;5053705;28;20531;-50
2023/03/21 06:46:59;;;;;;;6.78;3.75;;;7.60;99.90;;;;;;5048876;28;19927;-49
2023/03/21 06:49:26;;;;;;;6.38;3.40;;;7.70;99.90;;;;;;5052776;28;20049;-49
2023/03/21 06:51:56;;;;;;;4.55;2.90;;;7.80;99.90;;;;;;5052581;28;20471;-50
2023/03/21 06:54:23;;;;;;;6.32;3.70;;;7.90;99.90;;;;;;5057839;28;20046;-50
2023/03/21 06:56:55;;;;;;;6.22;3.75;;;8.00;99.90;;;;;;5054835;28;20040;-51
2023/03/21 06:59:29;;;;;;;7.15;3.60;;;8.00;99.90;;;;;;5052776;28;20045;-50
2023/03/21 07:02:05;;;;;;;5.50;3.60;;;8.10;99.90;;;;;;5044068;28;20437;-51
2023/03/21 07:04:37;;;;;;;6.57;3.78;;;8.20;99.90;;;;;;5063397;28;20047;-49
2023/03/21 07:07:09;;;;;;;8.40;3.72;;;8.20;99.90;;;;;;5057718;28;20497;-50
2023/03/21 07:09:36;;;;;;;6.55;3.60;;;8.20;99.90;;;;;;5079289;22;20048;-52
2023/03/21 07:12:05;;;;;;;4.90;3.60;;;8.70;99.90;;;;;;5065126;28;20432;-49
2023/03/21 07:14:54;;;;;;;6.05;3.67;;;8.50;99.90;;;;;;5085573;28;20484;-49
2023/03/21 07:17:20;;;;;;;7.38;3.90;;;8.60;99.90;;;;;;5091088;28;20420;-51
2023/03/21 07:19:47;;;;;;;4.68;3.38;;;8.60;99.90;;;;;;5087603;28;20099;-50
2023/03/21 07:22:17;;;;;;;8.20;3.95;;;8.80;99.90;;;;;;5073177;28;20054;-49
2023/03/21 07:24:47;;;;;;;5.18;3.45;;;8.90;99.90;;;;;;5090315;28;20071;-50
2023/03/21 07:27:28;;;;;;;5.70;3.72;;;9.00;99.90;;;;;;5091514;28;20044;-49
2023/03/21 07:29:55;;;;;;;6.10;3.47;;;9.10;99.90;;;;;;5068490;28;20573;-49
2023/03/21 07:32:22;;;;;;;10.32;3.67;;;9.10;99.90;;;;;;5073244;28;20044;-50
2023/03/21 07:34:49;;;;;;;;;;;9.10;99.90;;;;;;5078428;28;20044;-50
2023/03/21 07:37:15;;;;;;;5.90;3.17;;;9.10;99.90;;;;;;5071171;28;19921;-49
2023/03/21 07:39:42;;;;;;;7.22;3.53;;;9.10;99.90;;;;;;5052752;28;20209;-49
2023/03/21 07:42:10;;;;;;;5.10;3.58;;;9.10;99.90;;;;;;5052786;28;20060;-51
2023/03/21 07:44:38;;;;;;;6.15;4.05;;;9.10;99.90;;;;;;5059682;28;20044;-49
2023/03/21 07:47:05;;;;;;;5.10;3.72;;;9.20;99.90;;;;;;5061324;28;20053;-48
2023/03/21 07:49:32;;;;;;;6.63;4.03;;;9.30;99.90;;;;;;5065561;28;20135;-48
2023/03/21 07:52:00;;;;;;;6.90;3.92;;;9.30;99.90;;;;;;5083748;28;20280;-51
2023/03/21 07:54:30;;;;;;;6.15;3.70;;;9.20;99.90;;;;;;5075939;28;20490;-48
2023/03/21 07:56:57;;;;;;;7.82;3.67;;;9.30;99.90;;;;;;5070609;28;20045;-49
2023/03/21 07:59:24;;;;;;;5.93;4.03;;;9.30;99.90;;;;;;5100018;28;20341;-49
2023/03/21 08:01:50;;;;;;;8.80;3.60;;;9.40;99.90;;;;;;5084421;28;20071;-48
2023/03/21 08:04:17;;;;;;;8.05;4.20;;;9.50;99.90;;;;;;5085882;28;20046;-52
2023/03/21 08:06:44;;;;;;;12.10;4.72;;;9.50;99.90;;;;;;5081131;28;20079;-51
2023/03/21 08:09:11;;;;;;;7.07;4.00;;;9.60;99.90;;;;;;5069311;28;20049;-51
2023/03/21 08:11:39;;;;;;;6.45;3.78;;;9.60;99.90;;;;;;5069663;28;20440;-50
2023/03/21 08:14:05;;;;;;;6.72;3.95;;;9.70;99.90;;;;;;5070143;28;20083;-49
2023/03/21 08:16:32;;;;;;;5.90;3.53;;;9.70;99.90;;;;;;5082071;28;20548;-48
2023/03/21 08:18:59;;;;;;;11.23;3.60;;;9.60;99.90;;;;;;5089193;28;20385;-50
2023/03/21 08:21:26;;;;;;;6.78;3.42;;;9.60;99.90;;;;;;5093092;28;20044;-49
2023/03/21 08:23:53;;;;;;;4.25;3.65;;;9.50;99.90;;;;;;5088906;28;20164;-49
2023/03/21 08:26:20;;;;;;;5.38;4.00;;;9.40;99.90;;;;;;5094211;28;20032;-48
2023/03/21 08:28:46;;;;;;;5.07;3.92;;;9.50;99.90;;;;;;5070918;28;20213;-50
2023/03/21 08:31:14;;;;;;;6.57;3.67;;;9.50;99.90;;;;;;5083868;28;20063;-52
2023/03/21 08:33:40;;;;;;;9.30;4.18;;;9.60;99.90;;;;;;5079164;28;20097;-50
2023/03/21 08:36:08;;;;;;;9.50;4.53;;;9.70;99.90;;;;;;5072823;28;20119;-48
2023/03/21 08:38:35;;;;;;;5.95;4.10;;;9.70;99.90;;;;;;5072754;28;20123;-49
2023/03/21 08:41:02;;;;;;;6.15;3.40;;;9.80;99.90;;;;;;5072989;28;20503;-51
2023/03/21 08:43:29;;;;;;;6.00;4.15;;;9.90;99.90;;;;;;5075594;28;20082;-48
2023/03/21 08:45:55;;;;;;;5.60;3.67;;;10.00;99.90;;;;;;5072914;28;20447;-49
2023/03/21 08:48:22;;;;;;;5.63;3.25;;;10.10;99.90;;;;;;5073558;28;20040;-52
2023/03/21 08:50:49;;;;;;;6.38;3.10;;;10.30;99.90;;;;;;5074279;28;20184;-48
2023/03/21 08:53:16;;;;;;;4.18;3.05;;;10.40;99.90;;;;;;5074051;28;20123;-49
2023/03/21 08:55:43;;;;;;;6.10;3.47;;;10.40;99.90;;;;;;5072819;28;20406;-49
2023/03/21 08:58:10;;;;;;;7.35;3.00;;;10.50;99.90;;;;;;5073910;28;20045;-51
2023/03/21 09:00:37;;;;;;;8.32;3.15;;;10.80;99.90;;;;;;5080782;28;20044;-49
2023/03/21 09:03:04;;;;;;;5.68;3.40;;;10.70;99.90;;;;;;5057713;28;20041;-49
2023/03/21 09:05:30;;;;;;;5.10;2.97;;;10.70;99.90;;;;;;5071266;28;20050;-50
2023/03/21 09:08:00;;;;;;;6.43;2.88;;;10.80;99.90;;;;;;5074016;28;20044;-49
2023/03/21 09:10:27;;;;;;;4.10;3.30;;;10.90;99.90;;;;;;5078446;28;20090;-49
2023/03/21 09:12:54;;;;;;;7.40;3.80;;;10.70;99.90;;;;;;5073786;28;20068;-49
2023/03/21 09:15:23;;;;;;;8.20;3.28;;;10.90;99.90;;;;;;5072027;28;20044;-49
2023/03/21 09:17:57;;;;;;;4.30;3.00;;;10.90;99.90;;;;;;5073616;28;20087;-48
2023/03/21 09:20:29;;;;;;;5.90;3.03;;;11.00;99.90;;;;;;5089553;28;20032;-51
2023/03/21 09:22:57;;;;;;;6.57;2.80;;;11.20;99.90;;;;;;5093634;28;20513;-49
2023/03/21 09:25:28;;;;;;;4.55;2.78;;;11.00;99.90;;;;;;5092619;28;20071;-50
2023/03/21 09:27:55;;;;;;;7.13;2.95;;;11.20;99.90;;;;;;5089754;28;20040;-50
2023/03/21 09:30:22;;;;;;;3.90;2.67;;;11.40;99.90;;;;;;5071963;28;20036;-49
2023/03/21 09:32:53;;;;;;;7.10;3.17;;;11.50;99.90;;;;;;5071385;28;20048;-53
2023/03/21 09:35:20;;;;;;;5.72;3.08;;;11.50;99.90;;;;;;5092578;28;20408;-49
2023/03/21 09:37:47;;;;;;;3.42;2.72;;;11.50;99.90;;;;;;5087592;28;20070;-51
2023/03/21 09:40:14;;;;;;;4.38;3.28;;;11.50;99.90;;;;;;5091680;28;20073;-48
2023/03/21 09:43:08;;;;;;;6.75;3.30;;;11.70;99.90;;;;;;5092829;28;20075;-50
2023/03/21 09:46:18;;;;;;;6.47;3.00;;;11.80;99.90;;;;;;5069220;28;20365;-50
2023/03/21 09:49:30;;;;;;;4.63;3.10;;;12.10;99.90;;;;;;5008377;28;20083;-50
2023/03/21 09:52:02;;;;;;;7.45;2.60;;;12.10;99.90;;;;;;5092648;28;20044;-49
2023/03/21 09:54:36;;;;;;;5.80;3.28;;;12.20;99.90;;;;;;5069448;28;20051;-51
2023/03/21 09:57:18;;;;;;;4.85;3.10;;;12.30;99.90;;;;;;5092613;28;20097;-49
2023/03/21 09:59:47;;;;;;;10.73;3.35;;;12.40;99.90;;;;;;5074269;28;20041;-51
2023/03/21 10:02:34;;;;;;;5.28;3.20;;;12.50;99.90;;;;;;5076834;28;20554;-49
2023/03/21 10:05:13;;;;;;;5.07;2.83;;;12.60;99.90;;;;;;5072695;28;20094;-49
2023/03/21 10:07:46;;;;;;;5.40;3.58;;;12.60;99.90;;;;;;5071112;28;20083;-49
2023/03/21 10:10:17;;;;;;;3.95;2.50;;;12.70;99.90;;;;;;5072459;28;20699;-49
2023/03/21 10:12:46;;;;;;;3.20;2.65;;;12.80;99.90;;;;;;5076180;28;20041;-48
2023/03/21 10:15:19;;;;;;;4.47;2.70;;;12.80;99.90;;;;;;5072603;28;20073;-50
2023/03/21 10:18:00;;;;;;;3.70;2.90;;;12.60;99.90;;;;;;5072013;28;20131;-49
2023/03/21 10:20:36;;;;;;;3.53;2.83;;;12.80;99.90;;;;;;5085208;28;20097;-50
2023/03/21 10:23:05;;;;;;;4.20;3.20;;;13.10;99.90;;;;;;5101617;28;20040;-49
2023/03/21 10:25:35;;;;;;;4.57;2.50;;;13.00;99.90;;;;;;5107301;28;20170;-48
2023/03/21 10:28:06;;;;;;;4.55;2.90;;;12.90;99.90;;;;;;5071144;28;20558;-49
2023/03/21 10:30:54;;;;;;;6.68;3.28;;;13.20;99.90;;;;;;5071623;28;20083;-49
2023/03/21 10:33:28;;;;;;;7.20;2.97;;;13.60;99.90;;;;;;5074095;28;20469;-51
2023/03/21 10:36:24;;;;;;;5.05;3.10;;;13.80;99.90;;;;;;5054115;28;20052;-49
2023/03/21 10:38:59;;;;;;;4.35;2.88;;;14.00;99.90;;;;;;5058363;28;20059;-48
2023/03/21 10:41:26;;;;;;;4.05;2.70;;;14.00;99.90;;;;;;5080757;28;20078;-50
2023/03/21 10:44:06;;;;;;;4.10;2.97;;;14.00;99.90;;;;;;5070561;28;20040;-50
2023/03/21 10:46:33;;;;;;;6.55;3.47;;;14.00;99.90;;;;;;5070663;28;20071;-49
2023/03/21 10:49:05;;;;;;;9.25;3.63;;;13.90;99.90;;;;;;5071738;28;20040;-50
2023/03/21 10:51:36;;;;;;;7.82;3.20;;;14.00;99.90;;;;;;5080905;28;20166;-53
2023/03/21 10:54:14;;;;;;;6.68;3.58;;;14.00;99.90;;;;;;5071527;28;20040;-50
2023/03/21 10:56:52;;;;;;;8.68;3.30;;;14.00;99.90;;;;;;5070702;28;20113;-49
2023/03/21 10:59:20;;;;;;;;;;;14.00;99.90;;;;;;5086710;28;20076;-49
2023/03/21 11:01:51;;;;;;;3.97;2.63;;;14.00;99.90;;;;;;5072696;28;19951;-50
2023/03/21 11:04:25;;;;;;;6.30;3.35;;;13.90;99.90;;;;;;5070002;28;20599;-49
2023/03/21 11:06:55;;;;;;;4.95;3.80;;;14.00;99.90;;;;;;5086680;28;20040;-49
2023/03/21 11:09:26;;;;;;;7.03;3.50;;;14.20;99.90;;;;;;5090222;28;20115;-51
2023/03/21 11:12:01;;;;;;;3.85;3.35;;;14.40;99.90;;;;;;5073396;28;20036;-49
2023/03/21 11:14:46;;;;;;;6.05;3.38;;;14.30;99.90;;;;;;5081540;28;20052;-49
2023/03/21 11:17:16;;;;;;;5.05;3.75;;;14.30;99.90;;;;;;5071353;28;20098;-54
2023/03/21 11:20:05;;;;;;;5.18;3.53;;;14.40;99.90;;;;;;5069484;28;20051;-49
2023/03/21 11:22:42;;;;;;;8.82;3.63;;;14.70;99.90;;;;;;5074647;28;20090;-51
2023/03/21 11:25:22;;;;;;;4.53;3.35;;;14.80;99.90;;;;;;5077927;28;20130;-49
2023/03/21 11:27:51;;;;;;;9.00;3.72;;;14.50;99.90;;;;;;5070537;28;20404;-49
2023/03/21 11:30:26;;;;;;;5.25;3.20;;;14.60;99.90;;;;;;5073762;28;20111;-51
2023/03/21 11:32:56;;;;;;;6.68;3.60;;;14.90;99.90;;;;;;5070057;28;20132;-49
2023/03/21 11:35:37;;;;;;;6.75;4.07;;;15.10;99.90;;;;;;5069799;28;20135;-53
2023/03/21 11:38:22;;;;;;;5.20;3.78;;;15.30;99.90;;;;;;5077358;28;20050;-48
2023/03/21 11:40:53;;;;;;;6.40;3.53;;;15.20;99.90;;;;;;5092390;28;20128;-50
2023/03/21 11:43:21;;;;;;;4.25;3.17;;;14.90;99.90;;;;;;5090369;28;20489;-49
2023/03/21 11:46:05;;;;;;;6.40;3.50;;;15.10;99.90;;;;;;5110195;28;20039;-51
2023/03/21 11:48:40;;;;;;;7.35;3.80;;;15.40;99.90;;;;;;5074530;28;20033;-50
2023/03/21 11:51:42;;;;;;;8.63;4.57;;;15.50;99.90;;;;;;5070749;28;20044;-50
2023/03/21 11:54:25;;;;;;;3.78;3.38;;;15.50;99.90;;;;;;5070020;28;20076;-53
2023/03/21 11:56:58;;;;;;;5.82;3.75;;;15.70;99.90;;;;;;5077284;28;20082;-52
2023/03/21 11:59:39;;;;;;;6.57;3.60;;;15.70;99.90;;;;;;5069516;28;20123;-53
2023/03/21 12:02:42;;;;;;;5.55;3.63;;;15.90;99.90;;;;;;5073284;28;20119;-49
2023/03/21 12:05:18;;;;;;;3.70;2.90;;;15.90;99.90;;;;;;5089290;28;20052;-52
2023/03/21 12:07:48;;;;;;;6.00;3.20;;;16.10;99.90;;;;;;5087409;28;20036;-49
2023/03/21 12:10:33;;;;;;;4.13;3.40;;;16.30;99.90;;;;;;5073578;28;20045;-49
2023/03/21 12:13:00;;;;;;;6.35;3.90;;;16.20;99.90;;;;;;5069606;28;20098;-50
2023/03/21 12:15:40;;;;;;;3.60;3.17;;;16.00;99.90;;;;;;5070928;28;20087;-49
2023/03/21 12:18:13;;;;;;;5.03;3.20;;;16.10;99.90;;;;;;5071501;28;20072;-52
2023/03/21 12:20:59;;;;;;;6.72;3.13;;;16.20;99.90;;;;;;5075441;28;20072;-48
2023/03/21 12:24:01;;;;;;;3.95;2.75;;;16.40;99.90;;;;;;5082371;28;20089;-50
2023/03/21 12:26:35;;;;;;;4.10;2.60;;;16.60;99.90;;;;;;5085668;28;20089;-50
2023/03/21 12:29:16;;;;;;;3.85;3.20;;;16.70;99.90;;;;;;5088198;28;20036;-50
2023/03/21 12:32:07;;;;;;;2.95;2.28;;;16.50;99.90;;;;;;5068732;28;20052;-49
2023/03/21 12:34:53;;;;;;;3.63;2.67;;;16.60;99.90;;;;;;5074823;28;20119;-48
2023/03/21 12:37:32;;;;;;;3.17;2.63;;;16.60;99.90;;;;;;5069404;28;20572;-50
2023/03/21 12:40:31;;;;;;;3.88;2.08;;;16.70;99.90;;;;;;5086870;28;20048;-49
2023/03/21 12:42:58;;;;;;;;;;;16.70;99.90;;;;;;5051973;28;20139;-49
2023/03/21 12:45:47;;;;;;;4.30;2.40;;;16.60;99.90;;;;;;5075514;28;19951;-50
2023/03/21 12:48:37;;;;;;;3.63;2.85;;;16.60;99.90;;;;;;5069996;28;20048;-50
2023/03/21 12:51:11;;;;;;;4.20;2.83;;;16.50;99.90;;;;;;5068724;28;20537;-51
2023/03/21 12:54:04;;;;;;;2.75;2.47;;;16.40;99.90;;;;;;5072420;28;20484;-49
2023/03/21 12:56:37;;;;;;;3.42;2.60;;;16.30;99.90;;;;;;5077296;28;20131;-50
2023/03/21 12:59:30;;;;;;;5.80;3.35;;;16.30;99.90;;;;;;5066334;28;20090;-49
2023/03/21 13:02:09;;;;;;;6.90;3.08;;;16.40;99.90;;;;;;5090631;28;20072;-53
2023/03/21 13:05:16;;;;;;;6.90;3.00;;;16.50;99.90;;;;;;5089727;28;20122;-50
2023/03/21 13:07:48;;;;;;;6.50;2.65;;;16.50;99.90;;;;;;5071628;28;20485;-50
2023/03/21 13:10:19;;;;;;;4.22;2.67;;;16.60;99.90;;;;;;5104803;22;20381;-50
2023/03/21 13:13:12;;;;;;;5.10;2.65;;;16.70;99.90;;;;;;5104967;28;20044;-53
2023/03/21 13:15:43;;;;;;;3.63;2.72;;;16.70;99.40;;;;;;5096320;28;20496;-50
2023/03/21 13:18:30;;;;;;;4.13;2.60;;;16.70;99.30;;;;;;5112906;28;20515;-49
2023/03/21 13:21:20;;;;;;;3.95;2.90;;;16.70;99.50;;;;;;5117832;27;20138;-52
2023/03/21 13:24:23;;;;;;;4.20;2.70;;;16.80;99.60;;;;;;5116854;27;20089;-52
2023/03/21 13:27:06;;;;;;;3.92;2.80;;;16.80;99.70;;;;;;5114232;28;20035;-52
2023/03/21 13:29:43;;;;;;;3.58;2.95;;;16.90;99.40;;;;;;5107961;28;20589;-54
2023/03/21 13:32:45;;;;;;;3.80;2.38;;;16.80;98.50;;;;;;5113930;28;20129;-50
2023/03/21 13:35:27;;;;;;;3.55;2.55;;;16.90;99.50;;;;;;5112100;28;20043;-51